sensor_id;sensor_type;location;lat;lon;timestamp;pressure;altitude;pressure_sealevel;temperature;humidity
76687;BME280;65615;47.378;19.344;2023-01-26T05:25:57;100784.12;;;1.09;100.00
76687;BME280;65615;47.378;19.344;2023-01-26T05:30:02;100781.78;;;1.20;100.00
76687;BME280;65615;47.378;19.344;2023-01-26T05:34:05;100780.59;;;1.25;100.00
76687;BME280;65615;47.378;19.344;2023-01-26T05:38:08;100784.62;;;1.15;100.00
76687;BME280;65615;47.378;19.344;2023-01-26T05:42:12;100781.34;;;1.27;100.00
76687;BME280;65615;47.378;19.344;2023-01-26T05:46:16;100780.44;;;1.28;100.00
76687;BME280;65615;47.378;19.344;2023-01-26T05:50:19;100783.78;;;1.15;100.00
76687;BME280;65615;47.378;19.344;2023-01-26T05:54:37;100791.94;;;1.24;100.00
76687;BME280;65615;47.378;19.344;2023-01-26T05:58:40;100787.41;;;1.28;100.00
76687;BME280;65615;47.378;19.344;2023-01-26T06:02:43;100786.97;;;1.35;100.00
76687;BME280;65615;47.378;19.344;2023-01-26T06:06:54;100785.63;;;1.13;100.00
76687;BME280;65615;47.378;19.344;2023-01-26T06:10:59;100775.59;;;1.22;100.00
76687;BME280;65615;47.378;19.344;2023-01-26T06:15:07;100779.44;;;1.15;100.00
76687;BME280;65615;47.378;19.344;2023-01-26T06:19:11;100776.94;;;1.14;100.00
76687;BME280;65615;47.378;19.344;2023-01-26T06:23:15;100781.16;;;1.30;100.00
76687;BME280;65615;47.378;19.344;2023-01-26T06:27:18;100777.59;;;1.17;100.00
76687;BME280;65615;47.378;19.344;2023-01-26T06:31:22;100772.78;;;1.25;100.00
76687;BME280;65615;47.378;19.344;2023-01-26T06:35:26;100784.31;;;1.21;100.00
76687;BME280;65615;47.378;19.344;2023-01-26T06:39:30;100773.56;;;1.27;100.00
76687;BME280;65615;47.378;19.344;2023-01-26T06:43:44;100774.50;;;1.26;100.00
76687;BME280;65615;47.378;19.344;2023-01-26T06:47:49;100770.50;;;1.35;100.00
76687;BME280;65615;47.378;19.344;2023-01-26T06:55:57;100768.97;;;1.46;100.00
76687;BME280;65615;47.378;19.344;2023-01-26T07:00:00;100776.78;;;1.46;100.00
76687;BME280;65615;47.378;19.344;2023-01-26T07:04:07;100775.69;;;1.50;100.00
76687;BME280;65615;47.378;19.344;2023-01-26T07:08:10;100770.81;;;1.44;100.00
76687;BME280;65615;47.378;19.344;2023-01-26T07:12:13;100770.81;;;1.44;100.00
76687;BME280;65615;47.378;19.344;2023-01-26T07:16:17;100772.66;;;1.42;100.00
76687;BME280;65615;47.378;19.344;2023-01-26T07:20:20;100775.69;;;1.50;100.00
76687;BME280;65615;47.378;19.344;2023-01-26T07:24:23;100766.41;;;1.60;100.00
76687;BME280;65615;47.378;19.344;2023-01-26T07:28:27;100767.31;;;1.45;100.00
76687;BME280;65615;47.378;19.344;2023-01-26T07:32:32;100752.13;;;1.38;100.00
76687;BME280;65615;47.378;19.344;2023-01-26T07:36:37;100755.69;;;1.51;100.00
76687;BME280;65615;47.378;19.344;2023-01-26T07:40:41;100753.69;;;1.56;100.00
76687;BME280;65615;47.378;19.344;2023-01-26T07:44:44;100748.75;;;1.51;100.00
76687;BME280;65615;47.378;19.344;2023-01-26T07:48:47;100743.62;;;1.50;100.00
76687;BME280;65615;47.378;19.344;2023-01-26T07:52:50;100745.59;;;1.60;100.00
76687;BME280;65615;47.378;19.344;2023-01-26T07:56:55;100749.28;;;1.56;100.00
76687;BME280;65615;47.378;19.344;2023-01-26T08:01:07;100747.28;;;1.61;100.00
76687;BME280;65615;47.378;19.344;2023-01-26T08:05:10;100750.62;;;1.63;100.00
76687;BME280;65615;47.378;19.344;2023-01-26T08:09:14;100751.94;;;1.70;100.00
76687;BME280;65615;47.378;19.344;2023-01-26T08:13:18;100753.78;;;1.68;100.00
76687;BME280;65615;47.378;19.344;2023-01-26T08:17:36;100753.06;;;1.81;100.00
76687;BME280;65615;47.378;19.344;2023-01-26T08:21:43;100754.00;;;1.65;100.00
76687;BME280;65615;47.378;19.344;2023-01-26T08:25:47;100742.37;;;1.71;100.00
76687;BME280;65615;47.378;19.344;2023-01-26T08:30:08;100751.22;;;1.83;100.00
76687;BME280;65615;47.378;19.344;2023-01-26T08:34:14;100747.56;;;1.71;100.00
76687;BME280;65615;47.378;19.344;2023-01-26T08:38:17;100739.00;;;1.69;100.00
76687;BME280;65615;47.378;19.344;2023-01-26T08:42:21;100745.44;;;1.63;100.00
76687;BME280;65615;47.378;19.344;2023-01-26T08:46:44;100738.16;;;1.68;100.00
76687;BME280;65615;47.378;19.344;2023-01-26T08:51:01;100744.84;;;1.88;100.00
76687;BME280;65615;47.378;19.344;2023-01-26T08:55:12;100751.94;;;1.70;100.00
76687;BME280;65615;47.378;19.344;2023-01-26T08:59:15;100731.72;;;1.90;100.00
76687;BME280;65615;47.378;19.344;2023-01-26T09:03:19;100746.78;;;1.99;100.00
76687;BME280;65615;47.378;19.344;2023-01-26T09:07:22;100744.28;;;1.97;100.00
76687;BME280;65615;47.378;19.344;2023-01-26T09:11:24;100745.31;;;2.09;100.00
76687;BME280;65615;47.378;19.344;2023-01-26T09:15:29;100748.22;;;2.18;100.00
76687;BME280;65615;47.378;19.344;2023-01-26T09:19:34;100748.31;;;2.31;100.00
76687;BME280;65615;47.378;19.344;2023-01-26T09:23:37;100749.41;;;2.27;100.00
76687;BME280;65615;47.378;19.344;2023-01-26T09:27:40;100747.53;;;2.15;100.00
76687;BME280;65615;47.378;19.344;2023-01-26T09:31:43;100749.16;;;2.31;100.00
76687;BME280;65615;47.378;19.344;2023-01-26T09:35:46;100741.81;;;2.24;100.00
76687;BME280;65615;47.378;19.344;2023-01-26T09:39:49;100739.38;;;2.35;100.00
76687;BME280;65615;47.378;19.344;2023-01-26T09:44:03;100731.63;;;2.05;100.00
76687;BME280;65615;47.378;19.344;2023-01-26T09:48:24;100729.31;;;2.15;100.00
76687;BME280;65615;47.378;19.344;2023-01-26T09:52:34;100730.00;;;2.18;100.00
76687;BME280;65615;47.378;19.344;2023-01-26T09:56:39;100730.81;;;2.33;100.00
76687;BME280;65615;47.378;19.344;2023-01-26T10:00:46;100723.34;;;2.27;100.00
76687;BME280;65615;47.378;19.344;2023-01-26T10:04:52;100721.66;;;2.54;100.00
76687;BME280;65615;47.378;19.344;2023-01-26T10:09:00;100699.88;;;2.55;100.00
76687;BME280;65615;47.378;19.344;2023-01-26T10:13:04;100701.72;;;2.53;100.00
76687;BME280;65615;47.378;19.344;2023-01-26T10:17:16;100696.38;;;2.28;100.00
76687;BME280;65615;47.378;19.344;2023-01-26T10:21:34;100689.03;;;2.34;100.00
76687;BME280;65615;47.378;19.344;2023-01-26T10:26:20;100692.75;;;2.16;100.00
76687;BME280;65615;47.378;19.344;2023-01-26T10:30:23;100685.94;;;2.28;100.00
76687;BME280;65615;47.378;19.344;2023-01-26T10:34:29;100677.19;;;2.29;100.00
76687;BME280;65615;47.378;19.344;2023-01-26T10:38:43;100677.87;;;2.59;100.00
76687;BME280;65615;47.378;19.344;2023-01-26T10:42:57;100666.69;;;2.71;100.00
76687;BME280;65615;47.378;19.344;2023-01-26T10:51:14;100658.84;;;2.71;100.00
76687;BME280;65615;47.378;19.344;2023-01-26T10:55:21;100657.59;;;2.64;100.00
76687;BME280;65615;47.378;19.344;2023-01-26T10:59:30;100651.41;;;2.65;100.00
76687;BME280;65615;47.378;19.344;2023-01-26T11:04:08;100640.87;;;2.40;100.00
76687;BME280;65615;47.378;19.344;2023-01-26T11:08:35;100633.78;;;2.42;100.00
76687;BME280;65615;47.378;19.344;2023-01-26T11:12:48;100628.59;;;2.42;100.00
76687;BME280;65615;47.378;19.344;2023-01-26T11:17:04;100630.91;;;2.73;100.00
76687;BME280;65615;47.378;19.344;2023-01-26T11:21:35;100627.75;;;2.68;100.00
76687;BME280;65615;47.378;19.344;2023-01-26T11:35:23;100608.09;;;3.28;100.00
76687;BME280;65615;47.378;19.344;2023-01-26T11:44:26;100596.72;;;3.55;100.00
76687;BME280;65615;47.378;19.344;2023-01-26T11:53:15;100574.28;;;3.65;100.00
76687;BME280;65615;47.378;19.344;2023-01-26T11:57:33;100568.34;;;3.99;100.00
76687;BME280;65615;47.378;19.344;2023-01-26T12:06:42;100557.59;;;3.91;100.00
76687;BME280;65615;47.378;19.344;2023-01-26T12:15:28;100550.53;;;4.64;100.00
76687;BME280;65615;47.378;19.344;2023-01-26T12:19:58;100551.12;;;4.67;99.75
76687;BME280;65615;47.378;19.344;2023-01-26T12:24:08;100540.00;;;4.29;97.39
76687;BME280;65615;47.378;19.344;2023-01-26T12:28:37;100545.22;;;3.57;99.37
76687;BME280;65615;47.378;19.344;2023-01-26T12:32:41;100535.41;;;3.22;100.00
76687;BME280;65615;47.378;19.344;2023-01-26T12:40:54;100529.56;;;3.06;100.00
76687;BME280;65615;47.378;19.344;2023-01-26T12:45:05;100526.22;;;3.29;100.00
76687;BME280;65615;47.378;19.344;2023-01-26T12:49:16;100525.69;;;3.12;100.00
76687;BME280;65615;47.378;19.344;2023-01-26T12:53:36;100520.53;;;2.85;100.00
76687;BME280;65615;47.378;19.344;2023-01-26T12:57:53;100518.22;;;2.68;100.00
76687;BME280;65615;47.378;19.344;2023-01-26T13:01:57;100520.53;;;2.85;100.00
76687;BME280;65615;47.378;19.344;2023-01-26T13:06:16;100518.25;;;2.93;100.00
76687;BME280;65615;47.378;19.344;2023-01-26T13:10:23;100512.53;;;2.88;100.00
76687;BME280;65615;47.378;19.344;2023-01-26T13:18:49;100516.19;;;2.98;100.00
76687;BME280;65615;47.378;19.344;2023-01-26T13:22:53;100512.31;;;2.91;100.00
76687;BME280;65615;47.378;19.344;2023-01-26T13:26:57;100504.06;;;2.97;100.00
76687;BME280;65615;47.378;19.344;2023-01-26T13:31:09;100512.44;;;3.02;100.00
76687;BME280;65615;47.378;19.344;2023-01-26T13:35:52;100507.63;;;2.96;100.00
76687;BME280;65615;47.378;19.344;2023-01-26T13:40:05;100513.69;;;2.84;100.00
76687;BME280;65615;47.378;19.344;2023-01-26T13:44:17;100507.41;;;2.87;100.00
76687;BME280;65615;47.378;19.344;2023-01-26T13:52:40;100505.81;;;2.72;100.00
76687;BME280;65615;47.378;19.344;2023-01-26T13:57:03;100503.81;;;2.62;100.00
76687;BME280;65615;47.378;19.344;2023-01-26T14:01:11;100496.97;;;2.74;100.00
76687;BME280;65615;47.378;19.344;2023-01-26T14:05:20;100495.69;;;2.67;100.00
76687;BME280;65615;47.378;19.344;2023-01-26T14:09:27;100490.88;;;2.61;100.00
76687;BME280;65615;47.378;19.344;2023-01-26T14:13:36;100487.53;;;2.59;100.00
76687;BME280;65615;47.378;19.344;2023-01-26T14:17:49;100491.09;;;2.58;100.00
76687;BME280;65615;47.378;19.344;2023-01-26T14:21:57;100489.41;;;2.57;100.00
76687;BME280;65615;47.378;19.344;2023-01-26T14:26:06;100497.78;;;2.62;100.00
76687;BME280;65615;47.378;19.344;2023-01-26T14:30:28;100495.03;;;2.51;100.00
76687;BME280;65615;47.378;19.344;2023-01-26T14:34:55;100502.50;;;2.30;100.00
76687;BME280;65615;47.378;19.344;2023-01-26T14:39:19;100504.03;;;2.33;100.00
76687;BME280;65615;47.378;19.344;2023-01-26T14:43:35;100501.13;;;2.11;100.00
76687;BME280;65615;47.378;19.344;2023-01-26T14:47:39;100500.00;;;2.15;100.00
76687;BME280;65615;47.378;19.344;2023-01-26T14:51:43;100489.06;;;2.10;100.00
76687;BME280;65615;47.378;19.344;2023-01-26T14:55:47;100479.22;;;2.01;100.00
76687;BME280;65615;47.378;19.344;2023-01-26T14:59:53;100482.56;;;2.03;100.00
76687;BME280;65615;47.378;19.344;2023-01-26T15:04:05;100484.44;;;2.01;100.00
76687;BME280;65615;47.378;19.344;2023-01-26T15:08:21;100480.94;;;1.88;100.00
76687;BME280;65615;47.378;19.344;2023-01-26T15:12:25;100483.84;;;2.10;100.00
76687;BME280;65615;47.378;19.344;2023-01-26T15:16:28;100489.62;;;2.01;100.00
76687;BME280;65615;47.378;19.344;2023-01-26T15:24:34;100491.72;;;1.96;100.00
76687;BME280;65615;47.378;19.344;2023-01-26T15:28:37;100496.00;;;1.83;98.95
76687;BME280;65615;47.378;19.344;2023-01-26T15:32:40;100495.66;;;1.74;98.00
76687;BME280;65615;47.378;19.344;2023-01-26T15:36:50;100493.25;;;1.71;98.48
76687;BME280;65615;47.378;19.344;2023-01-26T15:40:53;100493.03;;;1.74;98.97
76687;BME280;65615;47.378;19.344;2023-01-26T15:44:56;100484.13;;;1.64;99.07
76687;BME280;65615;47.378;19.344;2023-01-26T15:48:59;100489.34;;;1.50;96.63
76687;BME280;65615;47.378;19.344;2023-01-26T15:53:02;100483.97;;;1.67;95.90
76687;BME280;65615;47.378;19.344;2023-01-26T15:57:05;100489.91;;;1.69;95.36
76687;BME280;65615;47.378;19.344;2023-01-26T16:01:13;100483.78;;;1.56;95.69
